createdAt,value
2023-04-11T00:02:20.029Z,1.67
2023-04-11T00:04:47.292Z,1.40
2023-04-11T00:07:13.882Z,1.13
2023-04-11T00:09:40.400Z,1.00
2023-04-11T00:12:07.207Z,1.03
2023-04-11T00:14:34.408Z,1.37
2023-04-11T00:17:01.199Z,1.20
2023-04-11T00:19:28.556Z,1.17
2023-04-11T00:21:58.655Z,1.30
2023-04-11T00:24:26.053Z,1.10
2023-04-11T00:26:53.524Z,1.67
2023-04-11T00:29:19.948Z,1.20
2023-04-11T00:31:46.388Z,1.50
2023-04-11T00:34:12.871Z,1.33
2023-04-11T00:36:41.911Z,1.17
2023-04-11T00:39:11.300Z,1.30
2023-04-11T00:41:37.795Z,1.40
2023-04-11T00:44:04.374Z,1.50
2023-04-11T00:46:30.948Z,1.13
2023-04-11T00:48:58.053Z,1.43
2023-04-11T00:51:25.731Z,1.30
2023-04-11T00:53:52.145Z,1.10
2023-04-11T00:56:18.677Z,1.23
2023-04-11T00:58:45.137Z,1.00
2023-04-11T01:01:11.698Z,1.00
2023-04-11T01:03:39.447Z,1.30
2023-04-11T01:06:08.300Z,1.00
2023-04-11T01:11:09.009Z,1.40
2023-04-11T01:13:39.114Z,0.80
2023-04-11T01:16:06.056Z,0.90
2023-04-11T01:18:32.884Z,1.17
2023-04-11T01:21:00.486Z,1.13
2023-04-11T01:23:27.452Z,1.00
2023-04-11T01:25:54.321Z,1.23
2023-04-11T01:28:21.206Z,1.17
2023-04-11T01:30:48.282Z,1.50
2023-04-11T01:33:16.315Z,1.30
2023-04-11T01:35:43.371Z,1.10
2023-04-11T01:38:10.001Z,1.17
2023-04-11T01:40:38.071Z,1.10
2023-04-11T01:43:05.000Z,1.43
2023-04-11T01:45:31.853Z,1.00
2023-04-11T01:47:58.461Z,1.03
2023-04-11T01:50:24.931Z,1.50
2023-04-11T01:52:51.763Z,1.20
2023-04-11T01:55:18.398Z,1.60
2023-04-11T01:57:44.796Z,1.20
2023-04-11T02:00:11.790Z,1.70
2023-04-11T02:02:38.560Z,1.10
2023-04-11T02:05:05.687Z,1.37
2023-04-11T02:07:32.256Z,1.03
2023-04-11T02:09:58.776Z,1.07
2023-04-11T02:12:25.199Z,1.10
2023-04-11T02:14:51.650Z,1.20
2023-04-11T02:17:18.624Z,1.33
2023-04-11T02:19:45.514Z,1.40
2023-04-11T02:22:12.767Z,1.10
2023-04-11T02:24:39.251Z,1.10
2023-04-11T02:27:06.182Z,1.40
2023-04-11T02:29:32.709Z,1.17
2023-04-11T02:31:59.295Z,1.40
2023-04-11T02:34:26.478Z,1.47
2023-04-11T02:36:53.426Z,1.40
2023-04-11T02:39:26.636Z,1.57
2023-04-11T02:41:53.055Z,1.43
2023-04-11T02:44:19.628Z,1.10
2023-04-11T02:46:46.059Z,1.80
2023-04-11T02:49:12.540Z,1.30
2023-04-11T02:51:38.974Z,1.13
2023-04-11T02:54:06.218Z,1.40
2023-04-11T02:56:34.890Z,1.27
2023-04-11T02:59:01.361Z,1.30
2023-04-11T03:01:28.170Z,1.30
2023-04-11T03:03:54.654Z,1.20
2023-04-11T03:06:21.403Z,1.23
2023-04-11T03:08:48.027Z,1.20
2023-04-11T03:11:14.470Z,1.90
2023-04-11T03:13:40.922Z,2.50
2023-04-11T03:16:08.076Z,1.50
2023-04-11T03:18:34.806Z,1.80
2023-04-11T03:21:01.718Z,2.17
2023-04-11T03:23:28.191Z,3.77
2023-04-11T03:25:54.672Z,2.23
2023-04-11T03:28:21.146Z,2.73
2023-04-11T03:30:48.754Z,2.50
2023-04-11T03:33:15.382Z,2.10
2023-04-11T03:35:41.914Z,2.20
2023-04-11T03:38:08.328Z,2.33
2023-04-11T03:40:34.965Z,2.63
2023-04-11T03:43:04.309Z,1.87
2023-04-11T03:45:31.300Z,2.10
2023-04-11T03:47:57.779Z,2.00
2023-04-11T03:50:24.623Z,2.70
2023-04-11T03:52:51.059Z,2.40
2023-04-11T03:55:18.490Z,1.83
2023-04-11T03:57:44.933Z,1.90
2023-04-11T04:00:12.754Z,2.07
2023-04-11T04:02:39.310Z,2.70
2023-04-11T04:05:06.730Z,2.37
2023-04-11T04:07:33.319Z,2.07
2023-04-11T04:09:59.757Z,2.03
2023-04-11T04:12:26.362Z,1.90
2023-04-11T04:14:52.761Z,2.27
2023-04-11T04:17:19.169Z,2.20
2023-04-11T04:19:45.584Z,1.80
2023-04-11T04:22:13.192Z,2.30
2023-04-11T04:24:42.071Z,2.40
2023-04-11T04:27:13.708Z,1.97
2023-04-11T04:29:46.459Z,2.20
2023-04-11T04:32:20.759Z,1.90
2023-04-11T04:34:54.921Z,1.70
2023-04-11T04:37:25.302Z,2.00
2023-04-11T04:39:54.278Z,1.93
2023-04-11T04:42:26.251Z,1.97
2023-04-11T04:44:55.024Z,1.70
2023-04-11T04:47:31.316Z,2.17
2023-04-11T04:49:58.432Z,1.87
2023-04-11T04:52:27.259Z,2.40
2023-04-11T04:54:57.765Z,1.60
2023-04-11T04:57:25.210Z,1.87
2023-04-11T04:59:51.559Z,2.20
2023-04-11T05:02:18.317Z,2.07
2023-04-11T05:04:44.935Z,2.30
2023-04-11T05:07:13.908Z,2.87
2023-04-11T05:09:40.723Z,2.10
2023-04-11T05:12:07.561Z,2.27
2023-04-11T05:14:34.124Z,1.60
2023-04-11T05:17:00.971Z,2.37
2023-04-11T05:19:27.552Z,2.20
2023-04-11T05:21:54.569Z,2.27
2023-04-11T05:24:21.005Z,2.13
2023-04-11T05:26:47.446Z,3.03
2023-04-11T05:29:13.940Z,1.87
2023-04-11T05:31:40.342Z,1.70
2023-04-11T05:34:06.746Z,2.57
2023-04-11T05:36:33.158Z,2.70
2023-04-11T05:38:59.566Z,3.43
2023-04-11T05:41:26.819Z,3.40
2023-04-11T05:43:53.255Z,3.10
2023-04-11T05:46:19.706Z,2.73
2023-04-11T05:48:46.141Z,2.80
2023-04-11T05:51:12.562Z,3.43
2023-04-11T05:53:38.960Z,3.80
2023-04-11T05:56:05.854Z,3.40
2023-04-11T05:58:32.363Z,3.00
2023-04-11T06:00:59.843Z,2.97
2023-04-11T06:03:27.089Z,3.10
2023-04-11T06:05:54.144Z,3.50
2023-04-11T06:08:21.403Z,3.57
2023-04-11T06:10:47.801Z,3.70
2023-04-11T06:13:14.183Z,3.87
2023-04-11T06:15:40.791Z,2.60
2023-04-11T06:18:07.242Z,2.90
2023-04-11T06:20:33.697Z,3.40
2023-04-11T06:23:01.364Z,3.50
2023-04-11T06:25:27.996Z,4.13
2023-04-11T06:27:54.439Z,3.30
2023-04-11T06:30:21.033Z,3.10
2023-04-11T06:32:47.515Z,2.40
2023-04-11T06:35:13.870Z,3.30
2023-04-11T06:37:42.234Z,2.30
2023-04-11T06:40:09.058Z,2.10
2023-04-11T06:42:35.522Z,2.03
2023-04-11T06:45:02.056Z,2.43
2023-04-11T06:47:28.558Z,3.30
2023-04-11T06:49:55.637Z,2.13
2023-04-11T06:52:22.404Z,3.03
2023-04-11T06:54:48.938Z,2.60
2023-04-11T06:57:15.388Z,2.20
2023-04-11T06:59:41.791Z,2.17
2023-04-11T07:02:08.385Z,2.27
2023-04-11T07:04:35.045Z,2.40
2023-04-11T07:07:01.552Z,2.20
2023-04-11T07:09:28.083Z,2.27
2023-04-11T07:11:54.483Z,2.40
2023-04-11T07:14:20.909Z,2.50
2023-04-11T07:16:47.352Z,2.77
2023-04-11T07:19:13.779Z,1.90
2023-04-11T07:21:40.230Z,1.57
2023-04-11T07:24:07.129Z,1.90
2023-04-11T07:26:35.335Z,1.60
2023-04-11T07:29:01.854Z,2.00
2023-04-11T07:31:28.425Z,2.60
2023-04-11T07:33:55.020Z,2.73
2023-04-11T07:36:21.908Z,1.97
2023-04-11T07:38:48.401Z,1.70
2023-04-11T07:41:16.282Z,1.73
2023-04-11T07:43:42.852Z,2.03
2023-04-11T07:46:09.452Z,2.77
2023-04-11T07:48:35.967Z,2.00
2023-04-11T07:51:02.387Z,1.73
2023-04-11T07:53:30.930Z,2.87
2023-04-11T07:55:57.465Z,1.93
2023-04-11T07:58:23.899Z,1.90
2023-04-11T08:00:50.992Z,2.17
2023-04-11T08:03:17.830Z,2.40
2023-04-11T08:05:44.614Z,2.00
2023-04-11T08:08:11.042Z,1.50
2023-04-11T08:10:37.564Z,1.97
2023-04-11T08:13:04.139Z,1.67
2023-04-11T08:15:31.389Z,1.80
2023-04-11T08:17:57.865Z,2.00
2023-04-11T08:20:24.625Z,1.30
2023-04-11T08:22:51.185Z,2.10
2023-04-11T08:25:22.709Z,1.70
2023-04-11T08:27:50.844Z,1.50
2023-04-11T08:30:17.836Z,1.90
2023-04-11T08:32:44.663Z,1.80
2023-04-11T08:35:11.178Z,1.60
2023-04-11T08:37:37.866Z,2.10
2023-04-11T08:40:07.106Z,2.00
2023-04-11T08:42:34.399Z,2.00
2023-04-11T08:45:04.175Z,1.43
2023-04-11T08:47:30.876Z,1.80
2023-04-11T08:49:57.322Z,1.97
2023-04-11T08:52:24.800Z,2.40
2023-04-11T08:54:54.877Z,2.27
2023-04-11T08:57:31.583Z,2.33
2023-04-11T09:00:00.492Z,2.60
2023-04-11T09:02:27.661Z,1.57
2023-04-11T09:04:54.663Z,2.27
2023-04-11T09:07:22.005Z,1.30
2023-04-11T09:09:48.520Z,1.80
2023-04-11T09:12:15.052Z,1.87
2023-04-11T09:14:41.875Z,1.77
2023-04-11T09:17:16.474Z,1.60
2023-04-11T09:19:43.052Z,1.90
2023-04-11T09:22:09.499Z,2.07
2023-04-11T09:24:37.175Z,1.80
2023-04-11T09:27:19.445Z,1.27
2023-04-11T09:29:47.341Z,1.80
2023-04-11T09:32:30.716Z,2.27
2023-04-11T09:35:20.719Z,1.90
2023-04-11T09:37:51.031Z,2.00
2023-04-11T09:40:19.244Z,1.90
2023-04-11T09:42:46.812Z,6.80
2023-04-11T09:45:17.417Z,4.93
2023-04-11T09:47:45.013Z,1.73
2023-04-11T09:50:12.131Z,1.90
2023-04-11T09:52:41.655Z,1.90
2023-04-11T09:55:08.911Z,1.60
2023-04-11T09:57:38.113Z,1.70
2023-04-11T10:00:17.145Z,1.93
2023-04-11T10:02:45.228Z,1.80
2023-04-11T10:05:13.368Z,2.67
2023-04-11T10:07:52.351Z,1.73
2023-04-11T10:10:21.056Z,1.40
2023-04-11T10:12:48.212Z,1.70
2023-04-11T10:15:15.581Z,1.47
2023-04-11T10:17:42.410Z,1.53
2023-04-11T10:20:44.758Z,2.20
2023-04-11T10:23:12.621Z,2.50
2023-04-11T10:25:55.115Z,1.50
2023-04-11T10:28:38.536Z,2.07
2023-04-11T10:31:10.260Z,1.80
2023-04-11T10:33:38.557Z,1.50
2023-04-11T10:36:05.568Z,1.90
2023-04-11T10:38:41.337Z,2.67
2023-04-11T10:41:23.358Z,1.80
2023-04-11T10:43:50.152Z,2.90
2023-04-11T10:46:17.741Z,1.60
2023-04-11T10:49:00.704Z,1.40
2023-04-11T10:51:28.732Z,2.03
2023-04-11T10:53:59.425Z,2.03
2023-04-11T10:56:45.467Z,1.30
2023-04-11T10:59:50.028Z,1.23
2023-04-11T11:02:16.828Z,2.00
2023-04-11T11:04:43.386Z,1.90
2023-04-11T11:07:15.538Z,2.03
2023-04-11T11:09:48.274Z,1.70
2023-04-11T11:12:16.889Z,1.13
2023-04-11T11:14:45.129Z,1.23
2023-04-11T11:17:15.321Z,1.10
2023-04-11T11:19:46.426Z,1.10
2023-04-11T11:22:25.749Z,1.43
2023-04-11T11:24:52.933Z,1.60
2023-04-11T11:27:21.106Z,1.07
2023-04-11T11:29:47.596Z,1.00
2023-04-11T11:32:22.686Z,0.70
2023-04-11T11:34:49.168Z,1.40
2023-04-11T11:37:15.631Z,1.17
2023-04-11T11:39:43.643Z,1.23
2023-04-11T11:42:10.277Z,1.13
2023-04-11T11:44:37.291Z,1.30
2023-04-11T11:47:17.403Z,1.80
2023-04-11T11:49:56.171Z,1.20
2023-04-11T11:52:35.916Z,1.37
2023-04-11T11:55:06.880Z,1.40
2023-04-11T11:57:34.761Z,1.40
2023-04-11T12:00:05.752Z,1.20
2023-04-11T12:02:36.070Z,1.47
2023-04-11T12:05:06.049Z,1.20
2023-04-11T12:07:34.043Z,1.40
2023-04-11T12:10:01.227Z,1.40
2023-04-11T12:12:38.609Z,1.37
2023-04-11T12:15:20.017Z,1.20
2023-04-11T12:17:53.802Z,1.33
2023-04-11T12:20:26.496Z,1.20
2023-04-11T12:22:54.608Z,1.60
2023-04-11T12:25:21.962Z,1.20
2023-04-11T12:27:48.472Z,1.40
2023-04-11T12:30:15.515Z,1.57
2023-04-11T12:32:42.769Z,1.30
2023-04-11T12:35:10.641Z,1.20
2023-04-11T12:37:37.453Z,1.03
2023-04-11T12:40:11.011Z,1.27
2023-04-11T12:42:48.956Z,1.30
2023-04-11T12:45:19.832Z,1.00
2023-04-11T12:47:46.405Z,1.60
2023-04-11T12:50:12.863Z,0.87
2023-04-11T12:52:39.391Z,1.50
2023-04-11T12:55:07.386Z,0.93
2023-04-11T12:57:33.779Z,1.50
2023-04-11T13:00:00.300Z,1.10
2023-04-11T13:02:28.161Z,1.53
2023-04-11T13:04:56.080Z,1.33
2023-04-11T13:07:22.640Z,1.23
2023-04-11T13:09:49.640Z,1.07
2023-04-11T13:12:16.469Z,1.30
2023-04-11T13:14:42.946Z,1.10
2023-04-11T13:17:11.406Z,1.80
2023-04-11T13:19:37.822Z,2.20
2023-04-11T13:22:04.896Z,1.73
2023-04-11T13:24:32.065Z,1.57
2023-04-11T13:26:59.106Z,1.10
2023-04-11T13:29:25.816Z,1.50
2023-04-11T13:31:52.265Z,1.20
2023-04-11T13:34:18.887Z,1.37
2023-04-11T13:36:46.331Z,1.60
2023-04-11T13:39:13.526Z,1.33
2023-04-11T13:41:39.957Z,1.30
2023-04-11T13:44:06.345Z,1.43
2023-04-11T13:46:32.712Z,1.00
2023-04-11T13:49:00.154Z,1.40
2023-04-11T13:51:27.504Z,1.70
2023-04-11T13:53:53.993Z,1.03
2023-04-11T13:56:20.587Z,1.00
2023-04-11T13:58:47.002Z,1.20
2023-04-11T14:01:13.462Z,1.40
2023-04-11T14:03:42.751Z,1.23
2023-04-11T14:06:09.624Z,0.90
2023-04-11T14:08:36.900Z,1.23
2023-04-11T14:11:03.612Z,0.83
2023-04-11T14:13:30.234Z,1.00
2023-04-11T14:16:07.810Z,1.37
2023-04-11T14:18:36.073Z,0.90
2023-04-11T14:21:03.145Z,1.30
2023-04-11T14:23:29.664Z,1.50
2023-04-11T14:25:56.708Z,1.50
2023-04-11T14:28:26.632Z,1.33
2023-04-11T14:30:53.838Z,1.10
2023-04-11T14:33:20.441Z,1.33
2023-04-11T14:35:47.343Z,1.50
2023-04-11T14:38:17.093Z,1.57
2023-04-11T14:40:44.425Z,1.20
2023-04-11T14:43:11.403Z,1.23
2023-04-11T14:45:38.124Z,1.23
2023-04-11T14:48:04.980Z,1.07
2023-04-11T14:50:31.513Z,1.30
2023-04-11T14:52:58.287Z,1.33
2023-04-11T14:55:24.836Z,1.30
2023-04-11T14:57:53.233Z,1.40
2023-04-11T15:00:20.900Z,1.60
2023-04-11T15:02:57.765Z,1.60
2023-04-11T15:05:24.491Z,1.90
2023-04-11T15:07:52.562Z,1.30
2023-04-11T15:10:21.552Z,0.97
2023-04-11T15:12:48.505Z,1.20
2023-04-11T15:15:15.736Z,1.37
2023-04-11T15:17:46.853Z,1.33
2023-04-11T15:20:14.597Z,1.77
2023-04-11T15:22:45.849Z,1.30
2023-04-11T15:25:15.457Z,2.00
2023-04-11T15:27:42.456Z,1.87
2023-04-11T15:30:10.232Z,1.60
2023-04-11T15:32:41.982Z,2.17
2023-04-11T15:35:09.095Z,1.90
2023-04-11T15:37:35.632Z,2.10
2023-04-11T15:40:06.069Z,1.83
2023-04-11T15:42:35.294Z,1.60
2023-04-11T15:45:02.177Z,1.37
2023-04-11T15:47:28.682Z,1.50
2023-04-11T15:49:55.250Z,1.60
2023-04-11T15:52:21.666Z,1.30
2023-04-11T15:54:48.059Z,1.57
2023-04-11T15:57:14.517Z,1.60
2023-04-11T15:59:41.475Z,1.50
2023-04-11T16:02:08.007Z,1.40
2023-04-11T16:04:38.413Z,1.30
2023-04-11T16:07:06.657Z,1.20
2023-04-11T16:09:33.961Z,1.50
2023-04-11T16:12:01.293Z,1.67
2023-04-11T16:14:29.296Z,1.20
2023-04-11T16:16:56.512Z,3.30
2023-04-11T16:19:23.129Z,2.40
2023-04-11T16:21:49.552Z,2.33
2023-04-11T16:24:16.503Z,1.60
2023-04-11T16:26:43.336Z,1.47
2023-04-11T16:29:09.716Z,1.47
2023-04-11T16:31:36.447Z,1.37
2023-04-11T16:34:02.946Z,1.30
2023-04-11T16:36:30.339Z,5.27
2023-04-11T16:38:56.746Z,3.30
2023-04-11T16:41:23.269Z,2.60
2023-04-11T16:43:49.717Z,2.10
2023-04-11T16:46:16.257Z,2.17
2023-04-11T16:48:43.467Z,1.93
2023-04-11T16:51:11.537Z,2.07
2023-04-11T16:53:38.927Z,1.47
2023-04-11T16:56:05.951Z,1.53
2023-04-11T16:58:32.640Z,1.47
2023-04-11T17:00:59.992Z,1.70
2023-04-11T17:03:27.339Z,1.57
2023-04-11T17:05:54.090Z,2.70
2023-04-11T17:08:20.700Z,2.13
2023-04-11T17:10:47.171Z,2.33
2023-04-11T17:13:14.891Z,1.77
2023-04-11T17:15:41.468Z,2.43
2023-04-11T17:18:08.031Z,1.80
2023-04-11T17:20:35.990Z,1.70
2023-04-11T17:23:02.506Z,1.73
2023-04-11T17:25:29.985Z,1.97
2023-04-11T17:27:57.336Z,2.70
2023-04-11T17:30:23.792Z,2.67
2023-04-11T17:32:50.327Z,2.80
2023-04-11T17:35:16.835Z,1.90
2023-04-11T17:37:43.334Z,1.90
2023-04-11T17:40:13.278Z,1.90
2023-04-11T17:42:40.519Z,1.97
2023-04-11T17:45:17.788Z,1.90
2023-04-11T17:47:46.412Z,2.93
2023-04-11T17:50:13.989Z,1.60
2023-04-11T17:52:41.737Z,3.33
2023-04-11T17:55:09.708Z,1.83
2023-04-11T17:57:36.236Z,2.40
2023-04-11T18:00:04.791Z,4.00
2023-04-11T18:02:32.696Z,3.00
2023-04-11T18:05:00.923Z,2.53
2023-04-11T18:07:28.885Z,5.90
2023-04-11T18:09:55.284Z,3.17
2023-04-11T18:12:29.483Z,4.00
2023-04-11T18:14:56.922Z,3.13
2023-04-11T18:17:23.450Z,3.23
2023-04-11T18:19:49.914Z,2.80
2023-04-11T18:22:16.496Z,2.47
2023-04-11T18:24:42.958Z,3.70
2023-04-11T18:27:10.541Z,5.60
2023-04-11T18:29:37.061Z,2.30
2023-04-11T18:32:22.355Z,2.33
2023-04-11T18:34:50.357Z,4.20
2023-04-11T18:37:17.762Z,2.10
2023-04-11T18:39:44.311Z,2.50
2023-04-11T18:42:10.777Z,2.93
2023-04-11T18:44:37.400Z,2.80
2023-04-11T18:47:06.184Z,3.03
2023-04-11T18:49:33.626Z,4.47
2023-04-11T18:52:00.083Z,4.83
2023-04-11T18:54:26.619Z,3.40
2023-04-11T18:56:54.316Z,3.33
2023-04-11T18:59:24.939Z,2.90
2023-04-11T19:01:52.462Z,2.60
2023-04-11T19:04:20.709Z,3.17
2023-04-11T19:06:47.424Z,2.40
2023-04-11T19:09:14.108Z,2.50
2023-04-11T19:11:41.439Z,2.80
2023-04-11T19:14:11.908Z,3.20
2023-04-11T19:16:38.533Z,3.23
2023-04-11T19:19:05.809Z,3.40
2023-04-11T19:21:32.256Z,2.50
2023-04-11T19:23:59.836Z,2.37
2023-04-11T19:26:29.329Z,1.97
2023-04-11T19:28:56.134Z,2.07
2023-04-11T19:31:24.828Z,1.90
2023-04-11T19:33:52.069Z,2.03
2023-04-11T19:36:19.431Z,2.70
2023-04-11T19:38:46.172Z,2.40
2023-04-11T19:41:14.313Z,2.60
2023-04-11T19:43:42.695Z,1.93
2023-04-11T19:46:12.061Z,2.30
2023-04-11T19:48:42.621Z,2.20
2023-04-11T19:51:10.014Z,2.20
2023-04-11T19:53:38.276Z,2.77
2023-04-11T19:56:07.049Z,3.10
2023-04-11T19:58:35.164Z,3.80
2023-04-11T20:01:02.445Z,4.93
2023-04-11T20:03:29.179Z,3.80
2023-04-11T20:05:55.875Z,3.93
2023-04-11T20:08:22.480Z,3.30
2023-04-11T20:10:49.452Z,2.23
2023-04-11T20:13:16.998Z,2.27
2023-04-11T20:15:43.500Z,1.90
2023-04-11T20:18:11.269Z,1.63
2023-04-11T20:20:38.504Z,1.73
2023-04-11T20:23:06.306Z,2.60
2023-04-11T20:25:34.138Z,2.40
2023-04-11T20:28:01.675Z,2.83
2023-04-11T20:30:29.736Z,3.80
2023-04-11T20:32:56.685Z,2.93
2023-04-11T20:35:23.374Z,2.10
2023-04-11T20:37:50.143Z,2.50
2023-04-11T20:40:17.458Z,2.00
2023-04-11T20:42:47.451Z,2.50
2023-04-11T20:45:20.390Z,3.00
2023-04-11T20:47:47.687Z,2.80
2023-04-11T20:50:16.930Z,2.40
2023-04-11T20:52:45.704Z,3.53
2023-04-11T20:55:14.419Z,3.20
2023-04-11T20:57:41.345Z,3.77
2023-04-11T21:00:13.556Z,3.13
2023-04-11T21:02:43.908Z,2.80
2023-04-11T21:05:11.920Z,2.00
2023-04-11T21:07:39.486Z,2.07
2023-04-11T21:10:07.434Z,2.43
2023-04-11T21:12:34.612Z,2.07
2023-04-11T21:15:01.863Z,2.17
2023-04-11T21:17:31.665Z,2.30
2023-04-11T21:19:58.150Z,2.10
2023-04-11T21:22:24.573Z,2.33
2023-04-11T21:24:51.007Z,2.40
2023-04-11T21:27:17.397Z,2.97
2023-04-11T21:29:43.822Z,4.00
2023-04-11T21:32:10.414Z,2.90
2023-04-11T21:34:37.458Z,3.90
2023-04-11T21:37:03.820Z,3.90
2023-04-11T21:39:30.287Z,4.50
2023-04-11T21:41:56.745Z,4.87
2023-04-11T21:44:23.259Z,4.37
2023-04-11T21:46:49.668Z,4.60
2023-04-11T21:49:16.222Z,3.80
2023-04-11T21:51:42.614Z,2.50
2023-04-11T21:54:09.061Z,3.00
2023-04-11T21:56:35.517Z,3.90
2023-04-11T21:59:02.047Z,4.63
2023-04-11T22:01:29.141Z,3.00
2023-04-11T22:03:56.554Z,3.50
2023-04-11T22:06:26.337Z,2.70
2023-04-11T22:08:52.715Z,2.63
2023-04-11T22:11:20.269Z,2.70
2023-04-11T22:13:46.894Z,2.40
2023-04-11T22:16:14.173Z,3.10
2023-04-11T22:18:47.116Z,3.43
2023-04-11T22:21:19.190Z,3.47
2023-04-11T22:23:54.309Z,3.00
2023-04-11T22:26:34.328Z,4.30
2023-04-11T22:29:05.506Z,3.60
2023-04-11T22:31:34.480Z,4.07
2023-04-11T22:34:02.804Z,3.23
2023-04-11T22:36:35.992Z,2.93
2023-04-11T22:39:06.736Z,2.90
2023-04-11T22:41:34.311Z,2.80
2023-04-11T22:44:01.416Z,2.07
2023-04-11T22:46:32.367Z,1.90
2023-04-11T22:48:58.795Z,2.53
2023-04-11T22:51:30.187Z,1.83
2023-04-11T22:53:57.644Z,2.37
2023-04-11T22:56:24.356Z,2.30
2023-04-11T22:58:50.947Z,2.27
2023-04-11T23:01:17.578Z,2.83
2023-04-11T23:03:44.087Z,2.67
2023-04-11T23:06:11.021Z,2.60
2023-04-11T23:08:37.568Z,2.63
2023-04-11T23:11:04.272Z,2.80
2023-04-11T23:13:30.776Z,2.70
2023-04-11T23:16:00.066Z,3.00
2023-04-11T23:18:26.511Z,2.20
2023-04-11T23:20:53.055Z,2.23
2023-04-11T23:23:19.965Z,1.93
2023-04-11T23:25:46.430Z,1.60
2023-04-11T23:28:12.828Z,2.17
2023-04-11T23:30:39.384Z,1.20
2023-04-11T23:33:08.480Z,2.27
2023-04-11T23:35:35.592Z,1.60
2023-04-11T23:38:02.890Z,1.70
2023-04-11T23:40:30.531Z,2.20
2023-04-11T23:42:57.917Z,1.30
2023-04-11T23:45:24.675Z,2.00
2023-04-11T23:47:51.896Z,1.77
2023-04-11T23:50:18.915Z,1.67
2023-04-11T23:52:46.319Z,1.80
2023-04-11T23:55:13.393Z,1.93
2023-04-11T23:57:39.917Z,1.97
